Weather at Wolf River Ranch Airport [CLOSED]

Public forecast

Using degrees Fahrenheit for public forecast. Weather courtesy of forecast.io.

Closest aviation weather report (METAR) to Wolf River Ranch Airport

Closest report is George R Carr Memorial Air Field, 22.5 nm (41.7 km) WSW. Retrieved 2021/07/28 22:35 UTC (5 minutes ago):

KBXA 282235Z AUTO 11006G17KT SCT018 BKN050 OVC120 26/23 A3003 RMK AO2 T02620231

Closest aviation forecast (TAF) to Wolf River Ranch Airport

Closest forecast is Hattiesburg Bobby L Chain Municipal Airport, 23.1 nm (42.8 km) NNE. Retrieved 2021/07/28 18:22 UTC (4 hours ago):

TAF KHBG 281720Z 2818/2918 33005KT P6SM VCSH SCT045 FM282000 31006KT P6SM VCTS SCT035CB BKN090 FM290200 00000KT P6SM FEW045 SCT250 FM291500 33003KT P6SM SCT025